createdAt,value
2018-11-26T00:01:14.769Z,93989.16
2018-11-26T00:03:43.422Z,94005.60
2018-11-26T00:06:12.141Z,94002.40
2018-11-26T00:08:40.786Z,93989.48
2018-11-26T00:11:44.140Z,93983.20
2018-11-26T00:14:12.766Z,93994.16
2018-11-26T00:16:41.419Z,93985.28
2018-11-26T00:19:10.013Z,93985.14
2018-11-26T00:21:38.697Z,93968.85
2018-11-26T00:24:07.391Z,93974.00
2018-11-26T00:26:35.970Z,93948.68
2018-11-26T00:29:04.602Z,93981.91
2018-11-26T00:31:33.353Z,93974.48
2018-11-26T00:34:01.952Z,93974.33
2018-11-26T00:36:30.656Z,93965.45
2018-11-26T00:38:59.661Z,93970.75
2018-11-26T00:41:28.310Z,93993.52
2018-11-26T00:43:57.002Z,93923.83
2018-11-26T00:46:25.632Z,93962.08
2018-11-26T00:48:54.387Z,93937.72
2018-11-26T00:51:23.023Z,93922.69
2018-11-26T00:53:52.320Z,93923.33
2018-11-26T00:56:21.003Z,93906.24
2018-11-26T00:58:49.576Z,93881.05
2018-11-26T01:01:18.252Z,93904.77
2018-11-26T01:03:46.834Z,93885.08
2018-11-26T01:06:15.480Z,93892.98
2018-11-26T01:08:44.180Z,93857.50
2018-11-26T01:11:12.837Z,93900.77
2018-11-26T01:13:41.510Z,93840.16
2018-11-26T01:16:10.188Z,93847.56
2018-11-26T01:18:38.852Z,93911.84
2018-11-26T01:21:07.455Z,93853.67
2018-11-26T01:23:36.043Z,93874.47
2018-11-26T01:26:04.671Z,93865.94
2018-11-26T01:28:33.317Z,93874.34
2018-11-26T01:31:01.954Z,93841.12
2018-11-26T01:33:30.582Z,93837.39
2018-11-26T01:35:59.271Z,93793.34
2018-11-26T01:38:27.888Z,93814.65
2018-11-26T01:40:56.484Z,93792.05
2018-11-26T01:43:25.145Z,93788.16
2018-11-26T01:45:53.826Z,93792.86
2018-11-26T01:48:22.488Z,93760.50
2018-11-26T01:50:51.145Z,93746.47
2018-11-26T01:53:19.757Z,93750.53
2018-11-26T01:55:48.375Z,93729.86
2018-11-26T01:58:17.046Z,93760.17
2018-11-26T02:00:45.812Z,93728.77
2018-11-26T02:03:14.423Z,93746.78
2018-11-26T02:05:43.068Z,93745.69
2018-11-26T02:08:11.728Z,93712.91
2018-11-26T02:10:40.353Z,93714.97
2018-11-26T02:13:09.062Z,93744.70
2018-11-26T02:15:38.818Z,93701.34
2018-11-26T02:18:08.229Z,93713.73
2018-11-26T02:20:36.897Z,93716.02
2018-11-26T02:23:05.672Z,93689.19
2018-11-26T02:25:34.364Z,93718.09
2018-11-26T02:28:03.024Z,93698.58
2018-11-26T02:30:31.668Z,93698.70
2018-11-26T02:33:00.504Z,93715.02
2018-11-26T02:35:29.163Z,93717.59
2018-11-26T02:37:57.782Z,93711.45
2018-11-26T02:40:29.702Z,93715.36
2018-11-26T02:42:58.391Z,93706.98
2018-11-26T02:45:27.865Z,93711.81
2018-11-26T02:47:56.534Z,93713.42
2018-11-26T02:50:25.144Z,93721.34
2018-11-26T02:52:53.811Z,93711.83
2018-11-26T02:55:22.479Z,93741.80
2018-11-26T02:57:51.142Z,93734.23
2018-11-26T03:00:19.812Z,93722.41
2018-11-26T03:02:48.414Z,93711.59
2018-11-26T03:05:32.862Z,93717.06
2018-11-26T03:08:01.509Z,93731.45
2018-11-26T03:10:30.236Z,93711.64
2018-11-26T03:12:58.822Z,93718.55
2018-11-26T03:15:27.488Z,93717.04
2018-11-26T03:17:56.821Z,93736.56
2018-11-26T03:20:25.508Z,93724.94
2018-11-26T03:22:54.128Z,93726.88
2018-11-26T03:25:22.843Z,93703.79
2018-11-26T03:27:51.733Z,93703.81
2018-11-26T03:30:21.650Z,93688.50
2018-11-26T03:32:50.395Z,93679.62
2018-11-26T03:35:19.010Z,93666.86
2018-11-26T03:37:47.639Z,93685.22
2018-11-26T03:40:16.328Z,93705.11
2018-11-26T03:42:45.120Z,93671.73
2018-11-26T03:45:15.634Z,93688.50
2018-11-26T03:47:44.399Z,93669.94
2018-11-26T03:50:13.939Z,93683.41
2018-11-26T03:52:43.764Z,93658.35
2018-11-26T03:55:12.933Z,93659.44
2018-11-26T03:57:41.697Z,93672.47
2018-11-26T04:00:15.578Z,93656.74
2018-11-26T04:02:44.276Z,93647.21
2018-11-26T04:05:13.109Z,93657.01
2018-11-26T04:07:41.949Z,93651.73
2018-11-26T04:10:11.642Z,93668.38
2018-11-26T04:12:40.499Z,93609.61
2018-11-26T04:15:11.593Z,93611.08
2018-11-26T04:17:40.269Z,93638.11
2018-11-26T04:20:09.469Z,93627.05
2018-11-26T04:22:38.301Z,93608.02
2018-11-26T04:25:08.381Z,93659.35
2018-11-26T04:27:37.068Z,93580.05
2018-11-26T04:30:10.935Z,93594.89
2018-11-26T04:32:40.227Z,93628.87
2018-11-26T04:35:08.966Z,93600.82
2018-11-26T04:37:37.699Z,93663.35
2018-11-26T04:40:09.418Z,93617.11
2018-11-26T04:42:38.154Z,93660.95
2018-11-26T04:45:08.460Z,93608.77
2018-11-26T04:47:37.347Z,93651.78
2018-11-26T04:50:10.380Z,93626.03
2018-11-26T04:52:39.086Z,93633.25
2018-11-26T04:55:09.090Z,93619.54
2018-11-26T04:57:42.145Z,93613.05
2018-11-26T05:00:13.308Z,93613.70
2018-11-26T05:02:41.990Z,93625.30
2018-11-26T05:05:11.685Z,93589.66
2018-11-26T05:07:40.297Z,93582.32
2018-11-26T05:10:15.483Z,93613.94
2018-11-26T05:12:44.185Z,93620.38
2018-11-26T05:15:13.597Z,93593.77
2018-11-26T05:17:42.335Z,93593.48
2018-11-26T05:20:12.700Z,93609.45
2018-11-26T05:22:41.433Z,93596.84
2018-11-26T05:25:11.053Z,93634.28
2018-11-26T05:27:39.717Z,93584.63
2018-11-26T05:30:10.830Z,93613.98
2018-11-26T05:32:39.452Z,93583.95
2018-11-26T05:35:09.334Z,93584.86
2018-11-26T05:37:38.057Z,93579.05
2018-11-26T05:40:10.379Z,93599.61
2018-11-26T05:42:39.175Z,93590.77
2018-11-26T05:45:10.779Z,93593.61
2018-11-26T05:47:39.424Z,93567.63
2018-11-26T05:50:09.795Z,93554.05
2018-11-26T05:52:39.321Z,93577.10
2018-11-26T05:55:10.017Z,93598.65
2018-11-26T05:57:38.651Z,93583.96
2018-11-26T06:00:23.025Z,93600.08
2018-11-26T06:02:51.566Z,93608.39
2018-11-26T06:05:20.199Z,93566.70
2018-11-26T06:07:48.959Z,93560.95
2018-11-26T06:10:17.750Z,93597.52
2018-11-26T06:12:46.395Z,93583.01
2018-11-26T06:15:15.013Z,93576.37
2018-11-26T06:17:43.714Z,93574.89
2018-11-26T06:20:13.360Z,93576.33
2018-11-26T06:22:43.371Z,93585.95
2018-11-26T06:25:17.317Z,93603.88
2018-11-26T06:27:46.006Z,93601.42
2018-11-26T06:30:17.661Z,93600.26
2018-11-26T06:32:46.761Z,93565.34
2018-11-26T06:35:19.578Z,93605.27
2018-11-26T06:37:48.304Z,93555.25
2018-11-26T06:40:16.982Z,93590.95
2018-11-26T06:42:46.024Z,93556.29
2018-11-26T06:45:16.830Z,93579.16
2018-11-26T06:47:45.444Z,93590.19
2018-11-26T06:50:15.306Z,93570.42
2018-11-26T06:52:44.164Z,93568.60
2018-11-26T06:55:14.521Z,93574.98
2018-11-26T06:57:43.281Z,93566.34
2018-11-26T07:00:14.113Z,93562.69
2018-11-26T07:02:42.765Z,93581.05
2018-11-26T07:05:13.001Z,93568.09
2018-11-26T07:07:41.757Z,93561.69
2018-11-26T07:10:11.533Z,93594.19
2018-11-26T07:12:40.371Z,93577.73
2018-11-26T07:15:12.622Z,93559.84
2018-11-26T07:17:41.305Z,93599.83
2018-11-26T07:20:13.102Z,93577.58
2018-11-26T07:22:41.758Z,93582.26
2018-11-26T07:25:11.777Z,93598.45
2018-11-26T07:27:40.440Z,93568.23
2018-11-26T07:30:16.996Z,93577.73
2018-11-26T07:32:45.736Z,93564.36
2018-11-26T07:35:15.200Z,93545.98
2018-11-26T07:37:43.907Z,93556.30
2018-11-26T07:40:15.577Z,93555.59
2018-11-26T07:42:55.387Z,93569.64
2018-11-26T07:45:24.092Z,93570.28
2018-11-26T07:47:52.789Z,93576.22
2018-11-26T07:50:21.445Z,93585.97
2018-11-26T07:52:50.080Z,93575.37
2018-11-26T07:55:19.991Z,93590.16
2018-11-26T07:57:48.638Z,93596.53
2018-11-26T08:00:18.743Z,93539.08
2018-11-26T08:02:47.868Z,93584.63
2018-11-26T08:05:18.761Z,93593.42
2018-11-26T08:07:47.580Z,93533.56
2018-11-26T08:10:17.628Z,93584.41
2018-11-26T08:12:47.159Z,93604.22
2018-11-26T08:15:22.436Z,93576.73
2018-11-26T08:17:49.977Z,93624.42
2018-11-26T08:20:18.690Z,93612.97
2018-11-26T08:22:47.473Z,93582.16
2018-11-26T08:25:18.779Z,93583.11
2018-11-26T08:27:48.354Z,93600.91
2018-11-26T08:30:22.637Z,93583.95
2018-11-26T08:32:54.134Z,93582.46
2018-11-26T08:35:22.818Z,93604.66
2018-11-26T08:37:57.646Z,93599.48
2018-11-26T08:40:27.456Z,93583.19
2018-11-26T08:42:59.403Z,93600.52
2018-11-26T08:45:30.187Z,93599.47
2018-11-26T08:48:01.079Z,93591.77
2018-11-26T08:50:29.849Z,93581.77
2018-11-26T08:52:58.515Z,93592.78
2018-11-26T08:55:27.230Z,93561.33
2018-11-26T08:57:55.916Z,93585.56
2018-11-26T09:00:24.627Z,93559.62
2018-11-26T09:03:00.332Z,93575.24
2018-11-26T09:05:34.356Z,93575.34
2018-11-26T09:08:03.044Z,93554.95
2018-11-26T09:10:31.723Z,93558.98
2018-11-26T09:13:00.408Z,93553.86
2018-11-26T09:15:29.065Z,93570.73
2018-11-26T09:17:57.705Z,93535.73
2018-11-26T09:20:26.385Z,93550.53
2018-11-26T09:22:55.050Z,93554.78
2018-11-26T09:25:23.664Z,93549.41
2018-11-26T09:27:52.326Z,93514.59
2018-11-26T09:30:21.023Z,93541.09
2018-11-26T09:32:49.673Z,93515.62
2018-11-26T09:35:18.312Z,93517.50
2018-11-26T09:37:46.950Z,93493.50
2018-11-26T09:40:17.747Z,93511.25
2018-11-26T09:42:46.415Z,93506.27
2018-11-26T09:45:16.339Z,93505.45
2018-11-26T09:47:45.093Z,93505.11
2018-11-26T09:50:15.866Z,93489.23
2018-11-26T09:52:44.622Z,93506.14
2018-11-26T09:55:15.516Z,93478.16
2018-11-26T09:57:44.314Z,93486.73
2018-11-26T10:00:20.438Z,93473.95
2018-11-26T10:02:51.097Z,93503.00
2018-11-26T10:05:22.034Z,93506.65
2018-11-26T10:07:50.758Z,93471.63
2018-11-26T10:10:19.448Z,93466.09
2018-11-26T10:12:48.117Z,93463.95
2018-11-26T10:15:20.679Z,93467.26
2018-11-26T10:17:49.464Z,93457.36
2018-11-26T10:20:18.194Z,93474.16
2018-11-26T10:22:47.434Z,93455.52
2018-11-26T10:25:17.150Z,93452.43
2018-11-26T10:27:45.778Z,93425.23
2018-11-26T10:30:18.804Z,93444.88
2018-11-26T10:32:51.008Z,93429.40
2018-11-26T10:35:20.351Z,93445.71
2018-11-26T10:37:49.144Z,93434.97
2018-11-26T10:40:21.198Z,93425.78
2018-11-26T10:42:49.911Z,93422.02
2018-11-26T10:45:19.684Z,93427.56
2018-11-26T10:47:48.428Z,93417.50
2018-11-26T10:50:18.136Z,93436.64
2018-11-26T10:52:55.648Z,93422.72
2018-11-26T10:55:25.681Z,93420.29
2018-11-26T10:57:54.338Z,93425.98
2018-11-26T11:00:28.260Z,93397.92
2018-11-26T11:02:56.933Z,93427.27
2018-11-26T11:05:25.629Z,93422.94
2018-11-26T11:07:54.303Z,93414.05
2018-11-26T11:10:27.226Z,93420.72
2018-11-26T11:12:55.878Z,93410.69
2018-11-26T11:15:24.625Z,93394.56
2018-11-26T11:17:53.663Z,93411.99
2018-11-26T11:20:24.851Z,93435.30
2018-11-26T11:22:53.588Z,93401.08
2018-11-26T11:25:22.733Z,93410.88
2018-11-26T11:27:51.802Z,93399.25
2018-11-26T11:30:22.435Z,93411.10
2018-11-26T11:32:51.133Z,93400.87
2018-11-26T11:35:20.033Z,93397.17
2018-11-26T11:37:49.547Z,93397.25
2018-11-26T11:40:26.005Z,93385.45
2018-11-26T11:42:54.800Z,93366.39
2018-11-26T11:45:23.956Z,93350.16
2018-11-26T11:47:52.596Z,93362.38
2018-11-26T11:50:21.893Z,93361.55
2018-11-26T11:52:50.827Z,93357.05
2018-11-26T11:55:21.468Z,93359.19
2018-11-26T11:57:50.344Z,93364.58
2018-11-26T12:00:26.909Z,93382.92
2018-11-26T12:02:55.593Z,93344.72
2018-11-26T12:05:24.298Z,93374.05
2018-11-26T12:07:53.004Z,93373.61
2018-11-26T12:10:21.754Z,93324.91
2018-11-26T12:12:50.379Z,93319.16
2018-11-26T12:15:18.996Z,93340.25
2018-11-26T12:17:48.463Z,93340.31
2018-11-26T12:20:17.118Z,93349.86
2018-11-26T12:22:46.107Z,93343.60
2018-11-26T12:25:18.908Z,93337.73
2018-11-26T12:27:47.633Z,93337.00
2018-11-26T12:30:20.654Z,93325.50
2018-11-26T12:32:49.322Z,93318.50
2018-11-26T12:35:18.048Z,93336.70
2018-11-26T12:37:46.746Z,93324.83
2018-11-26T12:40:17.620Z,93326.66
2018-11-26T12:42:46.322Z,93337.98
2018-11-26T12:45:19.554Z,93338.06
2018-11-26T12:47:48.226Z,93308.67
2018-11-26T12:50:47.783Z,93281.84
2018-11-26T12:53:16.469Z,93270.46
2018-11-26T12:55:45.239Z,93276.61
2018-11-26T12:58:13.947Z,93277.08
2018-11-26T13:00:42.623Z,93296.78
2018-11-26T13:03:13.541Z,93299.58
2018-11-26T13:05:42.254Z,93304.09
2018-11-26T13:08:10.886Z,93301.61
2018-11-26T13:10:39.694Z,93287.59
2018-11-26T13:13:09.744Z,93291.20
2018-11-26T13:15:38.486Z,93283.31
2018-11-26T13:18:07.583Z,93259.34
2018-11-26T13:20:36.330Z,93266.81
2018-11-26T13:23:05.936Z,93263.53
2018-11-26T13:25:35.994Z,93265.28
2018-11-26T13:28:05.132Z,93277.45
2018-11-26T13:30:49.923Z,93284.03
2018-11-26T13:33:19.450Z,93305.33
2018-11-26T13:35:49.188Z,93319.06
2018-11-26T13:38:17.722Z,93321.44
2018-11-26T13:40:46.393Z,93316.64
2018-11-26T13:43:16.485Z,93300.55
2018-11-26T13:45:46.557Z,93306.20
2018-11-26T13:48:16.458Z,93306.72
2018-11-26T13:50:48.843Z,93307.30
2018-11-26T13:53:17.671Z,93314.74
2018-11-26T13:55:46.409Z,93312.36
2018-11-26T13:58:15.104Z,93309.91
2018-11-26T14:00:43.844Z,93305.92
2018-11-26T14:03:12.567Z,93308.83
2018-11-26T14:05:41.233Z,93301.80
2018-11-26T14:08:09.910Z,93309.11
2018-11-26T14:10:38.547Z,93307.02
2018-11-26T14:13:11.624Z,93309.03
2018-11-26T14:15:40.347Z,93316.48
2018-11-26T14:18:09.039Z,93316.19
2018-11-26T14:20:37.747Z,93334.73
2018-11-26T14:23:07.067Z,93342.73
2018-11-26T14:25:35.895Z,93351.85
2018-11-26T14:28:04.641Z,93340.80
2018-11-26T14:30:33.375Z,93344.63
2018-11-26T14:33:02.000Z,93337.59
2018-11-26T14:35:30.699Z,93342.59
2018-11-26T14:38:01.186Z,93338.05
2018-11-26T14:40:33.449Z,93329.22
2018-11-26T14:43:02.152Z,93334.58
2018-11-26T14:45:30.984Z,93332.98
2018-11-26T14:47:59.779Z,93325.16
2018-11-26T14:50:28.468Z,93332.07
2018-11-26T14:52:57.131Z,93340.03
2018-11-26T14:55:28.950Z,93328.99
2018-11-26T14:57:57.661Z,93315.91
2018-11-26T15:00:26.404Z,93316.22
2018-11-26T15:02:55.069Z,93323.63
2018-11-26T15:05:23.754Z,93309.82
2018-11-26T15:07:52.408Z,93311.91
2018-11-26T15:10:22.241Z,93315.22
2018-11-26T15:12:51.001Z,93333.25
2018-11-26T15:15:23.453Z,93331.95
2018-11-26T15:17:52.110Z,93331.84
2018-11-26T15:20:24.348Z,93334.39
2018-11-26T15:22:54.035Z,93328.95
2018-11-26T15:25:26.563Z,93335.99
2018-11-26T15:27:58.547Z,93331.75
2018-11-26T15:30:27.243Z,93333.45
2018-11-26T15:32:55.934Z,93343.64
2018-11-26T15:35:25.060Z,93347.03
2018-11-26T15:37:53.795Z,93339.65
2018-11-26T15:40:23.003Z,93335.67
2018-11-26T15:42:51.649Z,93342.62
2018-11-26T15:45:23.203Z,93340.90
2018-11-26T15:47:52.642Z,93350.72
2018-11-26T15:50:21.377Z,93340.41
2018-11-26T15:52:50.097Z,93345.82
2018-11-26T15:55:19.915Z,93327.25
2018-11-26T15:57:48.639Z,93337.59
2018-11-26T16:00:22.320Z,93330.41
2018-11-26T16:02:51.308Z,93341.45
2018-11-26T16:05:21.328Z,93347.72
2018-11-26T16:07:50.725Z,93350.10
2018-11-26T16:10:19.418Z,93358.37
2018-11-26T16:12:49.509Z,93356.36
2018-11-26T16:15:19.672Z,93367.73
2018-11-26T16:17:48.423Z,93354.38
2018-11-26T16:20:18.572Z,93367.02
2018-11-26T16:22:47.294Z,93354.00
2018-11-26T16:25:17.441Z,93364.08
2018-11-26T16:27:46.130Z,93362.86
2018-11-26T16:30:20.823Z,93358.96
2018-11-26T16:32:52.972Z,93358.17
2018-11-26T16:35:23.230Z,93369.13
2018-11-26T16:37:51.857Z,93366.31
2018-11-26T16:40:20.707Z,93363.52
2018-11-26T16:42:49.379Z,93372.76
2018-11-26T16:45:20.840Z,93375.75
2018-11-26T16:47:54.356Z,93377.48
2018-11-26T16:50:25.610Z,93379.53
2018-11-26T16:52:54.334Z,93380.27
2018-11-26T16:55:22.995Z,93370.03
2018-11-26T16:57:51.811Z,93377.36
2018-11-26T17:00:24.395Z,93385.57
2018-11-26T17:02:54.179Z,93377.22
2018-11-26T17:05:39.546Z,93381.11
2018-11-26T17:08:09.776Z,93386.23
2018-11-26T17:10:38.496Z,93389.16
2018-11-26T17:13:07.416Z,93386.26
2018-11-26T17:15:36.158Z,93398.86
2018-11-26T17:18:05.297Z,93398.08
2018-11-26T17:20:33.917Z,93401.95
2018-11-26T17:23:02.563Z,93389.06
2018-11-26T17:25:31.312Z,93398.30
2018-11-26T17:28:00.010Z,93393.45
2018-11-26T17:30:29.219Z,93389.95
2018-11-26T17:33:00.256Z,93398.17
2018-11-26T17:35:29.541Z,93405.19
2018-11-26T17:37:58.199Z,93398.80
2018-11-26T17:40:27.485Z,93404.21
2018-11-26T17:42:56.387Z,93403.25
2018-11-26T17:45:25.585Z,93406.23
2018-11-26T17:47:57.468Z,93412.83
2018-11-26T17:50:36.943Z,93407.44
2018-11-26T17:53:08.418Z,93402.95
2018-11-26T17:55:48.524Z,93408.06
2018-11-26T17:58:17.613Z,93407.66
2018-11-26T18:00:48.228Z,93409.54
2018-11-26T18:03:16.934Z,93425.44
2018-11-26T18:05:45.580Z,93416.03
2018-11-26T18:08:16.538Z,93429.22
2018-11-26T18:10:45.361Z,93429.16
2018-11-26T18:13:14.002Z,93418.88
2018-11-26T18:15:42.729Z,93423.41
2018-11-26T18:18:14.120Z,93419.23
2018-11-26T18:20:42.789Z,93416.74
2018-11-26T18:23:11.839Z,93417.38
2018-11-26T18:25:40.638Z,93413.55
2018-11-26T18:28:10.418Z,93407.97
2018-11-26T18:30:43.156Z,93405.26
2018-11-26T18:33:11.902Z,93402.84
2018-11-26T18:35:41.217Z,93397.62
2018-11-26T18:38:09.939Z,93407.63
2018-11-26T18:40:39.977Z,93403.75
2018-11-26T18:43:09.360Z,93412.14
2018-11-26T18:45:39.079Z,93418.25
2018-11-26T18:48:08.704Z,93419.84
2018-11-26T18:50:37.441Z,93422.53
2018-11-26T18:53:06.954Z,93428.52
2018-11-26T18:55:35.742Z,93426.64
2018-11-26T18:58:04.654Z,93420.83
2018-11-26T19:00:35.415Z,93426.83
2018-11-26T19:03:04.070Z,93432.03
2018-11-26T19:05:32.738Z,93423.41
2018-11-26T19:08:01.890Z,93419.21
2018-11-26T19:10:32.530Z,93426.64
2018-11-26T19:17:41.449Z,93415.34
2018-11-26T19:20:11.434Z,93423.46
2018-11-26T19:22:40.771Z,93426.16
2018-11-26T19:25:11.386Z,93428.25
2018-11-26T19:27:40.153Z,93432.55
2018-11-26T19:30:16.525Z,93438.22
2018-11-26T19:32:45.994Z,93432.84
2018-11-26T19:35:16.710Z,93436.44
2018-11-26T19:37:45.333Z,93438.91
2018-11-26T19:40:16.346Z,93441.41
2018-11-26T19:42:45.879Z,93448.22
2018-11-26T19:45:16.651Z,93442.02
2018-11-26T19:47:45.458Z,93445.51
2018-11-26T19:50:15.333Z,93442.22
2018-11-26T19:52:44.298Z,93438.91
2018-11-26T19:55:19.454Z,93438.73
2018-11-26T19:57:48.121Z,93437.55
2018-11-26T20:00:20.056Z,93436.03
2018-11-26T20:03:23.420Z,93452.33
2018-11-26T20:06:12.368Z,93467.36
2018-11-26T20:08:41.778Z,93458.03
2018-11-26T20:11:11.313Z,93455.34
2018-11-26T20:13:40.027Z,93442.72
2018-11-26T20:16:12.639Z,93453.43
2018-11-26T20:18:41.423Z,93445.48
2018-11-26T20:21:10.250Z,93459.98
2018-11-26T20:23:39.205Z,93455.83
2018-11-26T20:26:07.961Z,93466.62
2018-11-26T20:28:36.720Z,93456.61
2018-11-26T20:31:06.058Z,93465.92
2018-11-26T20:33:35.151Z,93477.39
2018-11-26T20:36:03.952Z,93479.19
2018-11-26T20:38:32.647Z,93480.29
2018-11-26T20:41:01.356Z,93476.48
2018-11-26T20:43:30.664Z,93485.97
2018-11-26T20:45:59.332Z,93482.78
2018-11-26T20:48:30.406Z,93478.67
2018-11-26T20:50:56.897Z,93482.89
2018-11-26T20:53:27.334Z,93473.70
2018-11-26T20:55:56.183Z,93464.36
2018-11-26T20:58:24.829Z,93477.39
2018-11-26T21:00:53.519Z,93466.59
2018-11-26T21:03:22.319Z,93471.86
2018-11-26T21:05:51.076Z,93472.36
2018-11-26T21:08:19.888Z,93473.75
2018-11-26T21:10:48.539Z,93475.22
2018-11-26T21:13:18.618Z,93461.80
2018-11-26T21:15:47.334Z,93467.79
2018-11-26T21:18:16.102Z,93465.57
2018-11-26T21:20:48.951Z,93456.98
2018-11-26T21:23:21.140Z,93462.36
2018-11-26T21:25:49.949Z,93472.16
2018-11-26T21:28:18.634Z,93474.16
2018-11-26T21:30:51.976Z,93487.17
2018-11-26T21:33:16.319Z,93495.67
2018-11-26T21:35:45.050Z,93501.75
2018-11-26T21:38:13.900Z,93498.36
2018-11-26T21:40:42.630Z,93495.17
2018-11-26T21:43:12.091Z,93489.09
2018-11-26T21:45:50.580Z,93484.86
2018-11-26T21:48:19.274Z,93478.28
2018-11-26T21:50:48.015Z,93489.09
2018-11-26T21:53:16.788Z,93487.59
2018-11-26T21:55:45.453Z,93498.49
2018-11-26T21:58:14.163Z,93500.58
2018-11-26T22:00:43.250Z,93503.61
2018-11-26T22:03:13.795Z,93498.99
2018-11-26T22:05:43.525Z,93506.09
2018-11-26T22:08:12.559Z,93497.69
2018-11-26T22:10:42.408Z,93514.31
2018-11-26T22:13:12.528Z,93523.49
2018-11-26T22:15:41.233Z,93529.76
2018-11-26T22:18:10.073Z,93529.79
2018-11-26T22:20:38.940Z,93526.67
2018-11-26T22:23:08.575Z,93524.89
2018-11-26T22:25:37.377Z,93533.89
2018-11-26T22:28:08.787Z,93536.98
2018-11-26T22:30:38.222Z,93535.69
2018-11-26T22:33:07.097Z,93547.80
2018-11-26T22:35:35.775Z,93547.29
2018-11-26T22:38:04.518Z,93548.79
2018-11-26T22:40:33.269Z,93553.37
2018-11-26T22:43:01.889Z,93558.98
2018-11-26T22:45:31.927Z,93559.77
2018-11-26T22:48:03.052Z,93568.66
2018-11-26T22:50:32.314Z,93570.68
2018-11-26T22:53:00.632Z,93577.08
2018-11-26T22:55:29.315Z,93583.95
2018-11-26T22:57:57.984Z,93593.27
2018-11-26T23:00:41.575Z,93596.32
2018-11-26T23:03:11.172Z,93609.22
2018-11-26T23:05:39.837Z,93615.16
2018-11-26T23:08:08.499Z,93612.22
2018-11-26T23:10:37.148Z,93633.69
2018-11-26T23:13:06.066Z,93639.52
2018-11-26T23:15:34.835Z,93645.14
2018-11-26T23:18:03.615Z,93638.27
2018-11-26T23:20:32.307Z,93650.94
2018-11-26T23:23:00.984Z,93649.72
2018-11-26T23:25:29.638Z,93661.72
2018-11-26T23:27:58.382Z,93675.56
2018-11-26T23:30:28.249Z,93667.43
2018-11-26T23:33:04.587Z,93668.58
2018-11-26T23:35:33.174Z,93662.63
2018-11-26T23:38:03.085Z,93658.14
2018-11-26T23:40:31.762Z,93658.75
2018-11-26T23:43:00.397Z,93656.74
2018-11-26T23:45:29.816Z,93649.05
2018-11-26T23:47:58.520Z,93652.73
2018-11-26T23:50:27.166Z,93657.26
2018-11-26T23:52:55.745Z,93651.17
2018-11-26T23:55:25.130Z,93652.91
2018-11-26T23:57:53.766Z,93643.83
